Time;durP1;ratioP1;P1;durP2;ratioP2;P2;SDS_P1;SDS_P2;PMS_P1;PMS_P2;Temp;Humidity;BMP_temperature;BMP_pressure;BME280_temperature;BME280_humidity;BME280_pressure;Samples;Min_cycle;Max_cycle;Signal;HPM_P1;HPM_P2
2023/12/04 00:03:20;;;;;;;;;;;16.60;58.90;;;;;;10243007;28;93302;-48
2023/12/04 00:08:22;;;;;;;;;;;16.60;58.80;;;;;;10243448;28;93424;-47
2023/12/04 00:13:24;;;;;;;;;;;16.50;58.90;;;;;;10234873;28;93454;-48
2023/12/04 00:18:25;;;;;;;;;;;16.50;59.00;;;;;;10242112;28;93832;-48
2023/12/04 00:23:28;;;;;;;;;;;16.40;58.80;;;;;;10237517;28;93161;-48
2023/12/04 00:28:30;;;;;;;;;;;16.50;58.90;;;;;;10223143;28;93501;-48
2023/12/04 00:33:32;;;;;;;;;;;16.40;58.90;;;;;;10240268;28;95880;-45
2023/12/04 00:38:34;;;;;;;;;;;16.40;58.90;;;;;;10243577;28;94127;-47
2023/12/04 00:43:35;;;;;;;;;;;16.30;58.80;;;;;;10234638;28;93953;-48
2023/12/04 00:48:37;;;;;;;;;;;16.40;58.90;;;;;;10234756;28;92986;-48
2023/12/04 00:53:39;;;;;;;;;;;16.30;58.80;;;;;;10239405;28;94514;-47
2023/12/04 00:58:41;;;;;;;;;;;16.30;58.80;;;;;;10233801;28;94910;-50
2023/12/04 01:03:43;;;;;;;;;;;16.30;58.80;;;;;;10229914;28;93845;-45
2023/12/04 01:08:45;;;;;;;;;;;16.30;58.80;;;;;;10237037;28;92706;-44
2023/12/04 01:13:46;;;;;;;;;;;16.30;58.80;;;;;;10239925;28;94126;-48
2023/12/04 01:18:48;;;;;;;;;;;16.20;58.70;;;;;;10209516;28;93550;-45
2023/12/04 01:23:50;;;;;;;;;;;16.20;58.70;;;;;;10230513;28;95921;-46
2023/12/04 01:28:52;;;;;;;;;;;16.20;58.70;;;;;;10231925;28;93507;-46
2023/12/04 01:33:54;;;;;;;;;;;16.20;58.70;;;;;;10242832;28;94875;-46
2023/12/04 01:38:56;;;;;;;;;;;16.20;58.60;;;;;;10222470;28;93307;-45
2023/12/04 01:43:58;;;;;;;;;;;16.10;58.50;;;;;;10220203;28;94537;-46
2023/12/04 01:49:00;;;;;;;;;;;16.10;58.50;;;;;;10244055;28;93948;-44
2023/12/04 01:54:03;;;;;;;;;;;16.10;58.70;;;;;;10231938;28;93499;-46
2023/12/04 01:59:04;;;;;;;;;;;16.10;58.70;;;;;;10240117;28;95692;-45
2023/12/04 02:04:06;;;;;;;;;;;16.10;58.60;;;;;;10681494;22;94856;-45
2023/12/04 02:09:12;;;;;;;;;;;16.10;58.50;;;;;;10218322;28;95617;-48
2023/12/04 02:14:14;;;;;;;;;;;16.00;58.50;;;;;;10222510;28;96037;-45
2023/12/04 02:19:16;;;;;;;;;;;16.00;58.50;;;;;;10224307;28;93798;-45
2023/12/04 02:24:18;;;;;;;;;;;16.00;58.30;;;;;;10219662;28;93663;-45
2023/12/04 02:29:39;;;;;;;;;;;16.00;58.30;;;;;;10223866;28;93488;-44
2023/12/04 02:34:42;;;;;;;;;;;16.00;58.10;;;;;;10218808;28;94375;-45
2023/12/04 02:39:44;;;;;;;;;;;16.00;58.30;;;;;;10241426;28;93996;-46
2023/12/04 02:44:46;;;;;;;;;;;16.00;58.10;;;;;;10213066;28;94231;-49
2023/12/04 02:49:47;;;;;;;;;;;16.10;58.00;;;;;;10230757;28;93445;-44
2023/12/04 02:54:49;;;;;;;;;;;16.10;57.90;;;;;;10222826;28;93485;-47
2023/12/04 02:59:52;;;;;;;;;;;16.10;57.80;;;;;;10224392;28;94608;-45
2023/12/04 03:04:54;;;;;;;;;;;16.10;57.70;;;;;;10213217;28;95777;-47
2023/12/04 03:09:55;;;;;;;;;;;16.10;57.70;;;;;;10218211;28;94482;-45
2023/12/04 03:14:57;;;;;;;;;;;16.10;57.80;;;;;;10230481;28;94945;-46
2023/12/04 03:19:59;;;;;;;;;;;16.10;57.80;;;;;;10221148;28;93827;-47
2023/12/04 03:25:01;;;;;;;;;;;16.00;57.70;;;;;;10207545;28;93535;-44
2023/12/04 03:30:03;;;;;;;;;;;16.00;57.70;;;;;;10224082;28;93467;-44
2023/12/04 03:35:05;;;;;;;;;;;16.00;57.70;;;;;;10225212;28;94400;-48
2023/12/04 03:40:07;;;;;;;;;;;16.00;57.60;;;;;;10224045;28;92769;-55
2023/12/04 03:45:09;;;;;;;;;;;15.90;57.40;;;;;;10215368;28;94809;-45
2023/12/04 03:50:11;;;;;;;;;;;15.90;57.50;;;;;;10234869;28;94466;-46
2023/12/04 03:55:13;;;;;;;;;;;15.90;57.60;;;;;;10232413;28;96864;-48
2023/12/04 04:00:16;;;;;;;;;;;15.80;57.50;;;;;;10230775;28;94614;-45
2023/12/04 04:05:18;;;;;;;;;;;15.80;57.40;;;;;;10239189;28;95745;-44
2023/12/04 04:10:19;;;;;;;;;;;15.90;57.60;;;;;;10230324;28;93114;-44
2023/12/04 04:15:21;;;;;;;;;;;16.00;57.40;;;;;;10238907;28;93885;-44
2023/12/04 04:20:23;;;;;;;;;;;16.00;57.30;;;;;;10222030;28;93766;-45
2023/12/04 04:25:25;;;;;;;;;;;16.00;57.10;;;;;;10245918;28;95495;-44
2023/12/04 04:30:27;;;;;;;;;;;16.00;57.00;;;;;;10211243;28;92773;-46
2023/12/04 04:35:28;;;;;;;;;;;16.00;57.00;;;;;;10219503;28;94613;-46
2023/12/04 04:40:30;;;;;;;;;;;16.00;56.90;;;;;;10222070;28;93555;-45
2023/12/04 04:45:33;;;;;;;;;;;15.90;57.80;;;;;;10218109;28;96892;-45
2023/12/04 04:50:34;;;;;;;;;;;15.90;56.90;;;;;;10210751;28;94624;-46
2023/12/04 04:55:37;;;;;;;;;;;15.90;57.00;;;;;;10210557;28;92724;-46
2023/12/04 05:00:49;;;;;;;;;;;15.90;57.10;;;;;;10229808;28;93564;-45
2023/12/04 05:05:51;;;;;;;;;;;15.80;57.00;;;;;;10230789;28;92643;-45
2023/12/04 05:10:53;;;;;;;;;;;15.80;57.00;;;;;;10216299;28;94626;-45
2023/12/04 05:15:55;;;;;;;;;;;15.80;57.00;;;;;;10231207;28;94008;-46
2023/12/04 05:20:57;;;;;;;;;;;15.70;56.90;;;;;;10245391;28;93690;-45
2023/12/04 05:25:59;;;;;;;;;;;15.70;56.90;;;;;;10241125;28;93402;-46
2023/12/04 05:31:00;;;;;;;;;;;15.70;56.90;;;;;;10240341;28;93468;-44
2023/12/04 05:36:03;;;;;;;;;;;15.70;57.10;;;;;;10238395;28;97324;-50
2023/12/04 05:41:04;;;;;;;;;;;15.80;57.00;;;;;;10223651;28;94739;-47
2023/12/04 05:46:06;;;;;;;;;;;15.90;56.90;;;;;;10240199;28;94478;-46
2023/12/04 05:51:09;;;;;;;;;;;16.00;56.80;;;;;;10226808;28;93477;-45
2023/12/04 05:56:11;;;;;;;;;;;16.20;56.50;;;;;;10242362;28;94025;-45
2023/12/04 06:01:14;;;;;;;;;;;16.40;56.10;;;;;;10244220;28;94458;-44
2023/12/04 06:06:16;;;;;;;;;;;16.50;55.70;;;;;;10239110;28;94620;-44
2023/12/04 06:11:18;;;;;;;;;;;16.60;55.50;;;;;;10221708;28;94017;-44
2023/12/04 06:16:20;;;;;;;;;;;16.70;55.40;;;;;;10222316;28;93151;-45
2023/12/04 06:21:22;;;;;;;;;;;16.80;55.20;;;;;;10220827;28;94444;-45
2023/12/04 06:26:24;;;;;;;;;;;16.80;55.00;;;;;;10224066;28;96172;-44
2023/12/04 06:31:26;;;;;;;;;;;16.80;54.90;;;;;;10212759;28;94811;-44
2023/12/04 06:36:30;;;;;;;;;;;16.80;54.90;;;;;;10215912;28;94398;-44
2023/12/04 06:41:31;;;;;;;;;;;16.80;55.10;;;;;;10221957;28;93648;-44
2023/12/04 06:46:37;;;;;;;;;;;16.80;55.10;;;;;;10242568;28;93512;-48
2023/12/04 06:51:39;;;;;;;;;;;16.90;55.10;;;;;;10224338;28;93947;-46
2023/12/04 06:56:40;;;;;;;;;;;16.90;55.30;;;;;;10229093;28;94281;-45
2023/12/04 07:01:42;;;;;;;;;;;16.80;55.30;;;;;;10224053;28;93705;-46
2023/12/04 07:06:44;;;;;;;;;;;16.80;56.40;;;;;;10233639;28;93235;-49
2023/12/04 07:11:46;;;;;;;;;;;16.90;58.10;;;;;;10222044;28;93423;-46
2023/12/04 07:16:49;;;;;;;;;;;16.90;57.20;;;;;;10226943;28;96814;-45
2023/12/04 07:21:51;;;;;;;;;;;16.90;57.30;;;;;;10229645;28;94561;-47
2023/12/04 07:26:52;;;;;;;;;;;16.90;57.60;;;;;;10231238;28;94686;-51
2023/12/04 07:31:54;;;;;;;;;;;16.90;57.60;;;;;;10240098;28;93460;-47
2023/12/04 07:36:56;;;;;;;;;;;16.80;57.50;;;;;;10233722;28;95042;-47
2023/12/04 07:41:58;;;;;;;;;;;16.80;57.40;;;;;;10223042;28;93891;-50
2023/12/04 07:47:15;;;;;;;;;;;16.70;57.70;;;;;;10212380;28;94467;-47
2023/12/04 07:52:18;;;;;;;;;;;16.60;57.80;;;;;;10221069;28;93946;-46
2023/12/04 07:57:20;;;;;;;;;;;16.60;57.90;;;;;;10247645;28;93409;-45
2023/12/04 08:02:22;;;;;;;;;;;16.50;57.90;;;;;;10245938;28;93845;-49
2023/12/04 08:07:24;;;;;;;;;;;16.50;57.90;;;;;;10243666;28;95857;-46
2023/12/04 08:12:27;;;;;;;;;;;16.40;58.00;;;;;;10234830;28;95157;-46
2023/12/04 08:17:29;;;;;;;;;;;16.30;57.90;;;;;;10246863;28;94164;-46
2023/12/04 08:22:31;;;;;;;;;;;16.30;57.90;;;;;;10245881;28;94324;-46
2023/12/04 08:27:33;;;;;;;;;;;16.20;57.70;;;;;;10221756;28;93398;-50
2023/12/04 08:32:35;;;;;;;;;;;16.20;57.60;;;;;;10223394;28;94985;-46
2023/12/04 08:37:37;;;;;;;;;;;16.10;57.60;;;;;;10205905;28;93550;-49
2023/12/04 08:42:39;;;;;;;;;;;16.00;57.50;;;;;;10229551;28;92262;-46
2023/12/04 08:47:41;;;;;;;;;;;16.00;57.70;;;;;;10220123;28;93458;-47
2023/12/04 08:52:43;;;;;;;;;;;15.90;57.70;;;;;;10222829;28;94003;-48
2023/12/04 08:57:45;;;;;;;;;;;15.90;57.70;;;;;;10220596;28;96836;-46
2023/12/04 09:02:47;;;;;;;;;;;15.90;57.80;;;;;;10228733;28;94666;-46
2023/12/04 09:08:00;;;;;;;;;;;15.80;57.80;;;;;;10211163;28;94152;-47
2023/12/04 09:13:21;;;;;;;;;;;15.80;57.70;;;;;;10220469;28;95743;-46
2023/12/04 09:18:23;;;;;;;;;;;15.70;57.70;;;;;;10214553;28;93463;-46
2023/12/04 09:23:25;;;;;;;;;;;15.70;57.70;;;;;;10213067;28;94567;-46
2023/12/04 09:28:29;;;;;;;;;;;15.70;57.60;;;;;;10232647;28;93515;-46
2023/12/04 09:33:31;;;;;;;;;;;15.60;57.70;;;;;;10216087;28;94829;-46
2023/12/04 09:38:34;;;;;;;;;;;15.50;57.80;;;;;;10214137;28;94991;-46
2023/12/04 09:43:36;;;;;;;;;;;15.60;57.80;;;;;;10212292;28;94572;-47
2023/12/04 09:48:38;;;;;;;;;;;15.50;57.70;;;;;;10218619;28;95852;-48
2023/12/04 09:53:41;;;;;;;;;;;15.50;57.90;;;;;;10245642;28;94445;-46
2023/12/04 09:58:43;;;;;;;;;;;15.50;57.80;;;;;;10225389;28;93476;-45
2023/12/04 10:03:45;;;;;;;;;;;15.50;57.90;;;;;;10212024;28;93478;-46
2023/12/04 10:08:47;;;;;;;;;;;15.40;58.90;;;;;;10231940;28;94024;-45
2023/12/04 10:13:49;;;;;;;;;;;15.40;57.90;;;;;;10240213;28;94049;-47
2023/12/04 10:19:14;;;;;;;;;;;15.40;57.90;;;;;;10241096;28;93510;-49
2023/12/04 10:24:36;;;;;;;;;;;15.40;57.90;;;;;;10232336;28;94061;-49
2023/12/04 10:29:48;;;;;;;;;;;15.40;57.80;;;;;;10217185;28;93555;-46
2023/12/04 10:34:50;;;;;;;;;;;15.40;57.80;;;;;;10196400;28;94975;-46
2023/12/04 10:39:53;;;;;;;;;;;15.30;57.90;;;;;;10212697;28;96975;-45
2023/12/04 10:44:57;;;;;;;;;;;15.30;57.80;;;;;;10208173;28;93496;-45
2023/12/04 10:49:59;;;;;;;;;;;15.30;57.80;;;;;;10223250;28;94207;-46
2023/12/04 10:55:01;;;;;;;;;;;15.30;57.70;;;;;;10227255;28;94626;-45
2023/12/04 11:00:08;;;;;;;;;;;15.30;57.70;;;;;;10235739;28;94503;-47
2023/12/04 11:05:17;;;;;;;;;;;15.30;57.70;;;;;;10223801;28;94768;-46
2023/12/04 11:10:25;;;;;;;;;;;15.30;57.70;;;;;;10222339;28;94462;-46
2023/12/04 11:15:28;;;;;;;;;;;15.30;57.70;;;;;;10246875;28;93011;-46
2023/12/04 11:20:31;;;;;;;;;;;15.20;57.70;;;;;;10212763;28;94776;-45
2023/12/04 11:25:34;;;;;;;;;;;15.30;57.70;;;;;;10235607;28;94209;-47
2023/12/04 11:30:36;;;;;;;;;;;15.20;57.80;;;;;;10209563;28;97047;-46
2023/12/04 11:35:39;;;;;;;;;;;15.20;57.70;;;;;;10229883;28;94531;-45
2023/12/04 11:40:42;;;;;;;;;;;15.30;57.80;;;;;;10219925;28;93389;-46
2023/12/04 11:45:43;;;;;;;;;;;15.30;57.80;;;;;;10215957;28;94586;-49
2023/12/04 11:50:47;;;;;;;;;;;15.20;57.70;;;;;;10217509;28;94198;-49
2023/12/04 11:55:49;;;;;;;;;;;15.20;57.70;;;;;;10231658;28;94958;-45
2023/12/04 12:00:52;;;;;;;;;;;15.20;57.70;;;;;;10234121;28;93655;-45
2023/12/04 12:05:54;;;;;;;;;;;15.20;57.70;;;;;;10223927;28;92558;-46
2023/12/04 12:10:57;;;;;;;;;;;15.20;57.70;;;;;;10235281;28;93588;-48
2023/12/04 12:15:59;;;;;;;;;;;15.20;57.60;;;;;;10228443;28;93539;-47
2023/12/04 12:21:01;;;;;;;;;;;15.20;57.60;;;;;;10215674;28;95944;-46
2023/12/04 12:26:03;;;;;;;;;;;15.20;57.70;;;;;;10242095;28;93405;-50
2023/12/04 12:31:04;;;;;;;;;;;15.20;57.60;;;;;;10220289;28;95018;-47
2023/12/04 12:36:06;;;;;;;;;;;15.20;57.60;;;;;;10238359;28;93567;-45
2023/12/04 12:41:11;;;;;;;;;;;15.10;57.50;;;;;;10227893;28;94804;-46
2023/12/04 12:46:13;;;;;;;;;;;15.10;57.60;;;;;;10234920;28;94798;-46
2023/12/04 12:51:15;;;;;;;;;;;15.10;57.60;;;;;;10223357;28;94954;-45
2023/12/04 12:56:17;;;;;;;;;;;15.10;57.60;;;;;;10209690;28;93154;-46
2023/12/04 13:01:22;;;;;;;;;;;15.10;57.60;;;;;;10233453;28;94815;-45
2023/12/04 13:06:24;;;;;;;;;;;15.00;57.50;;;;;;10217367;28;93379;-49
2023/12/04 13:11:25;;;;;;;;;;;15.10;57.60;;;;;;10229510;28;95885;-63
2023/12/04 13:16:27;;;;;;;;;;;15.00;57.50;;;;;;10234034;28;94563;-47
2023/12/04 13:21:31;;;;;;;;;;;15.00;57.50;;;;;;10236188;28;94435;-50
2023/12/04 13:26:33;;;;;;;;;;;15.00;57.40;;;;;;10237005;28;94383;-49
2023/12/04 13:31:35;;;;;;;;;;;15.00;57.40;;;;;;10222697;28;94594;-46
2023/12/04 13:36:37;;;;;;;;;;;15.00;57.40;;;;;;10221989;28;93413;-48
2023/12/04 13:47:00;;;;;;;;;;;15.00;57.40;;;;;;10233993;28;92748;-46
2023/12/04 13:52:07;;;;;;;;;;;14.90;57.40;;;;;;10219710;28;93860;-46
2023/12/04 13:57:09;;;;;;;;;;;14.90;57.40;;;;;;10235998;28;94635;-45
2023/12/04 14:02:12;;;;;;;;;;;14.90;57.40;;;;;;10229708;28;96150;-46
2023/12/04 14:07:14;;;;;;;;;;;14.90;57.40;;;;;;10224623;28;94075;-47
2023/12/04 14:12:16;;;;;;;;;;;14.90;57.40;;;;;;10225556;28;93991;-44
2023/12/04 14:17:18;;;;;;;;;;;14.90;57.40;;;;;;10218425;28;94222;-47
2023/12/04 14:22:20;;;;;;;;;;;14.90;57.40;;;;;;10226447;28;94045;-47
2023/12/04 14:27:22;;;;;;;;;;;14.90;57.50;;;;;;10218486;28;93547;-49
2023/12/04 14:32:24;;;;;;;;;;;14.80;57.40;;;;;;10219903;28;94574;-46
2023/12/04 14:37:35;;;;;;;;;;;14.90;57.40;;;;;;10230431;28;92884;-48
2023/12/04 14:42:37;;;;;;;;;;;14.80;57.40;;;;;;10229636;28;93899;-45
2023/12/04 14:47:40;;;;;;;;;;;14.80;57.40;;;;;;10208395;28;93161;-50
2023/12/04 14:53:14;;;;;;;;;;;14.80;57.40;;;;;;10218450;28;96220;-45
2023/12/04 15:24:12;;;;;;;;;;;14.70;57.40;;;;;;10237413;28;94456;-50
2023/12/04 15:29:17;;;;;;;;;;;14.70;57.40;;;;;;10218490;28;92506;-49
2023/12/04 15:34:21;;;;;;;;;;;14.70;57.40;;;;;;10238390;28;94627;-45
2023/12/04 15:39:23;;;;;;;;;;;14.70;57.40;;;;;;10219469;28;94473;-46
2023/12/04 15:44:25;;;;;;;;;;;14.70;57.40;;;;;;10230916;28;96534;-46
2023/12/04 15:49:27;;;;;;;;;;;14.70;57.40;;;;;;10233678;28;94447;-45
2023/12/04 15:54:31;;;;;;;;;;;14.70;57.40;;;;;;10229592;28;93842;-47
2023/12/04 15:59:33;;;;;;;;;;;14.70;57.40;;;;;;10238712;28;94254;-46
2023/12/04 16:04:35;;;;;;;;;;;14.70;57.30;;;;;;10239581;28;93501;-47
2023/12/04 16:09:37;;;;;;;;;;;14.70;57.30;;;;;;10229076;28;93515;-49
2023/12/04 16:14:39;;;;;;;;;;;14.70;57.30;;;;;;10232925;28;93505;-47
2023/12/04 16:19:41;;;;;;;;;;;14.70;57.30;;;;;;10241626;28;93699;-45
2023/12/04 16:24:43;;;;;;;;;;;14.70;57.30;;;;;;10244203;28;94245;-46
2023/12/04 16:29:45;;;;;;;;;;;14.70;57.30;;;;;;10226938;28;94138;-46
2023/12/04 16:34:47;;;;;;;;;;;14.70;57.30;;;;;;10221013;28;97238;-45
2023/12/04 16:39:49;;;;;;;;;;;14.60;57.20;;;;;;10214562;28;94316;-46
2023/12/04 16:44:51;;;;;;;;;;;14.70;57.30;;;;;;10213140;28;94301;-45
2023/12/04 16:49:53;;;;;;;;;;;14.60;57.10;;;;;;10213240;28;93469;-45
2023/12/04 16:54:55;;;;;;;;;;;14.60;57.20;;;;;;10216433;28;94647;-45
2023/12/04 16:59:56;;;;;;;;;;;14.60;57.20;;;;;;10243402;28;94076;-44
2023/12/04 17:04:59;;;;;;;;;;;14.60;57.10;;;;;;10223902;28;92910;-45
2023/12/04 17:10:01;;;;;;;;;;;14.60;57.20;;;;;;10221499;28;93498;-52
2023/12/04 17:15:03;;;;;;;;;;;14.60;57.00;;;;;;10232939;28;93998;-45
2023/12/04 17:20:06;;;;;;;;;;;14.60;57.20;;;;;;10222713;28;94377;-48
2023/12/04 17:25:08;;;;;;;;;;;14.80;57.10;;;;;;10240081;28;96864;-54
2023/12/04 17:30:10;;;;;;;;;;;15.10;56.90;;;;;;10240427;28;94485;-48
2023/12/04 17:35:12;;;;;;;;;;;15.30;56.40;;;;;;10242211;28;93473;-45
2023/12/04 17:40:14;;;;;;;;;;;15.60;56.00;;;;;;10241820;28;94436;-48
2023/12/04 17:45:18;;;;;;;;;;;15.80;55.60;;;;;;10240979;28;93482;-46
2023/12/04 17:50:20;;;;;;;;;;;16.00;55.20;;;;;;10227592;28;94453;-45
2023/12/04 17:55:22;;;;;;;;;;;16.20;55.00;;;;;;10231759;28;93631;-45
2023/12/04 18:00:24;;;;;;;;;;;16.40;54.60;;;;;;10233304;28;93645;-46
2023/12/04 18:05:26;;;;;;;;;;;16.50;54.30;;;;;;10167571;28;94542;-48
2023/12/04 18:10:28;;;;;;;;;;;16.60;54.20;;;;;;10219024;28;93623;-45
2023/12/04 18:15:30;;;;;;;;;;;16.70;54.10;;;;;;10223393;28;95921;-48
2023/12/04 18:20:32;;;;;;;;;;;16.80;53.90;;;;;;10223422;28;94786;-45
2023/12/04 18:25:34;;;;;;;;;;;16.90;55.00;;;;;;10216498;28;93764;-46
2023/12/04 18:30:36;;;;;;;;;;;17.00;55.20;;;;;;10231146;28;96399;-45
2023/12/04 18:35:38;;;;;;;;;;;17.30;55.70;;;;;;10235564;28;94641;-44
2023/12/04 18:40:40;;;;;;;;;;;17.40;54.50;;;;;;10236097;28;94467;-46
2023/12/04 18:45:42;;;;;;;;;;;17.50;54.40;;;;;;10227461;28;93501;-48
2023/12/04 18:50:44;;;;;;;;;;;17.60;54.40;;;;;;10217748;28;94057;-47
2023/12/04 18:55:46;;;;;;;;;;;17.60;54.30;;;;;;10221184;28;94317;-49
2023/12/04 19:00:48;;;;;;;;;;;17.60;55.20;;;;;;10215145;28;93913;-48
2023/12/04 19:05:50;;;;;;;;;;;17.80;55.20;;;;;;10224197;28;95938;-45
2023/12/04 19:10:52;;;;;;;;;;;17.90;54.20;;;;;;10217967;28;95013;-46
2023/12/04 19:15:54;;;;;;;;;;;18.00;54.10;;;;;;10228197;28;93491;-46
2023/12/04 19:20:57;;;;;;;;;;;18.00;54.20;;;;;;10229269;28;93868;-49
2023/12/04 19:25:58;;;;;;;;;;;18.00;54.20;;;;;;10232077;28;94410;-45
2023/12/04 19:31:03;;;;;;;;;;;18.00;54.20;;;;;;10231602;28;94553;-45
2023/12/04 19:36:06;;;;;;;;;;;18.00;54.20;;;;;;10246204;28;93586;-45
2023/12/04 19:41:08;;;;;;;;;;;18.00;54.20;;;;;;10238515;28;92527;-45
2023/12/04 19:46:09;;;;;;;;;;;18.00;54.20;;;;;;10243860;28;94410;-48
2023/12/04 19:51:12;;;;;;;;;;;18.00;54.20;;;;;;10233143;28;93792;-46
2023/12/04 19:56:14;;;;;;;;;;;18.00;54.20;;;;;;10217076;28;96827;-46
2023/12/04 20:01:22;;;;;;;;;;;18.00;54.20;;;;;;10239674;28;96597;-47
2023/12/04 20:06:24;;;;;;;;;;;18.10;54.20;;;;;;10220416;28;93429;-46
2023/12/04 20:11:26;;;;;;;;;;;18.10;54.20;;;;;;10234792;28;94521;-47
2023/12/04 20:16:29;;;;;;;;;;;18.10;54.20;;;;;;10237220;28;94462;-46
2023/12/04 20:21:31;;;;;;;;;;;18.20;54.20;;;;;;10229540;28;93797;-46
2023/12/04 20:26:33;;;;;;;;;;;18.20;54.10;;;;;;10235354;28;94645;-44
2023/12/04 20:31:35;;;;;;;;;;;18.20;54.10;;;;;;10227209;28;93488;-45
2023/12/04 20:36:39;;;;;;;;;;;18.20;54.10;;;;;;10232080;28;93520;-44
2023/12/04 20:41:40;;;;;;;;;;;18.30;54.10;;;;;;10235711;28;94475;-46
2023/12/04 20:46:42;;;;;;;;;;;18.20;53.00;;;;;;10237987;28;96881;-46
2023/12/04 20:51:44;;;;;;;;;;;18.20;54.10;;;;;;10235391;28;94680;-44
2023/12/04 20:56:46;;;;;;;;;;;18.00;54.20;;;;;;10240157;28;95845;-46
2023/12/04 21:01:49;;;;;;;;;;;17.90;54.30;;;;;;10241465;28;93853;-47
2023/12/04 21:06:51;;;;;;;;;;;17.80;54.50;;;;;;10236990;28;93526;-47
2023/12/04 21:11:53;;;;;;;;;;;17.70;54.70;;;;;;10222675;28;94580;-45
2023/12/04 21:16:55;;;;;;;;;;;17.50;54.90;;;;;;10214895;28;94517;-65
2023/12/04 21:22:02;;;;;;;;;;;17.40;55.10;;;;;;10243826;28;93884;-50
2023/12/04 21:27:04;;;;;;;;;;;17.30;55.30;;;;;;10235009;28;93479;-50
2023/12/04 21:32:06;;;;;;;;;;;17.20;55.60;;;;;;10238751;28;94455;-45
2023/12/04 21:37:08;;;;;;;;;;;17.00;55.60;;;;;;10231859;28;96194;-45
2023/12/04 21:42:10;;;;;;;;;;;17.00;56.10;;;;;;10235249;28;94000;-48
2023/12/04 21:47:12;;;;;;;;;;;16.90;56.10;;;;;;10240207;28;93592;-47
2023/12/04 21:52:14;;;;;;;;;;;16.80;55.90;;;;;;10233473;28;93792;-50
2023/12/04 21:57:16;;;;;;;;;;;16.70;55.70;;;;;;10223388;28;93556;-48
2023/12/04 22:02:18;;;;;;;;;;;16.70;55.40;;;;;;10235818;28;93837;-45
2023/12/04 22:07:20;;;;;;;;;;;16.50;55.20;;;;;;10231187;28;94134;-47
2023/12/04 22:12:22;;;;;;;;;;;16.40;55.20;;;;;;10230467;28;92848;-48
2023/12/04 22:17:24;;;;;;;;;;;16.40;55.00;;;;;;10230617;28;93452;-48
2023/12/04 22:22:26;;;;;;;;;;;16.30;54.80;;;;;;10225953;28;93564;-48
2023/12/04 22:27:30;;;;;;;;;;;16.30;54.80;;;;;;10209974;28;116434;-46
2023/12/04 22:32:31;;;;;;;;;;;16.20;55.00;;;;;;10222917;28;94493;-47
2023/12/04 22:37:33;;;;;;;;;;;16.10;55.40;;;;;;10239261;28;94601;-51
2023/12/04 22:42:36;;;;;;;;;;;16.10;56.60;;;;;;10240127;28;94783;-47
2023/12/04 22:47:38;;;;;;;;;;;16.00;55.40;;;;;;10239852;28;93473;-47
2023/12/04 22:52:40;;;;;;;;;;;16.00;55.20;;;;;;10216813;28;93847;-48
2023/12/04 22:57:42;;;;;;;;;;;16.00;55.00;;;;;;10239010;28;93434;-52
2023/12/04 23:02:44;;;;;;;;;;;15.90;54.90;;;;;;10221610;28;92793;-49
2023/12/04 23:07:46;;;;;;;;;;;15.90;54.70;;;;;;10242013;28;93800;-49
2023/12/04 23:12:49;;;;;;;;;;;15.80;54.60;;;;;;10254048;28;92866;-51
2023/12/04 23:17:51;;;;;;;;;;;15.80;54.40;;;;;;10251850;28;95951;-50
2023/12/04 23:22:53;;;;;;;;;;;15.70;54.40;;;;;;10253443;28;94527;-50
2023/12/04 23:27:55;;;;;;;;;;;15.70;54.80;;;;;;10253075;28;94034;-47
2023/12/04 23:32:57;;;;;;;;;;;15.60;55.20;;;;;;10252562;28;94410;-47
2023/12/04 23:37:59;;;;;;;;;;;15.60;55.20;;;;;;10236274;28;93526;-47
2023/12/04 23:43:01;;;;;;;;;;;15.50;55.00;;;;;;10250503;28;93890;-52
2023/12/04 23:48:03;;;;;;;;;;;15.50;54.80;;;;;;10248389;28;93265;-50
2023/12/04 23:53:05;;;;;;;;;;;15.60;54.80;;;;;;10229608;28;92821;-46
2023/12/04 23:58:07;;;;;;;;;;;15.50;54.70;;;;;;10252307;28;93500;-46
